Hurghada, Egypt
Current Conditions -  °F | °C
As of 2:00 PM on Sunday 21 Dec 2014 (Local Time) from HEGN Reporting Station
Clear Clear  
Wind Chill: 23°   Ceiling: Unl
Heat Index: 23°   Visibility: 6mi
Dew Point: 11°   Wind: 24mph
Humidity: 47%   Direction: 10°N
Pressure: 30.03"   Gusts: NA
Location:  27.23°N, 33.83°E
Report Text: HEGN 211200Z 01021KT CAVOK 23/11 Q1017 NOSIG
Loading
Personal Weather Stations






























Interactive Weather Map New forecast layout! Learn more

10-Day Weather Forecast

Advertisements
Track Severe Weather on mobile